Главная страница
METAR-TAF:

METAR-TAF

Аэропорты :

Хальмстад, Швеция

широта: 56-41N, долгота: 012-50E, высота над уровнем моря: 30 м

Текущие метеонаблюдения

Эта сводка был подготовлена 35 минут назад, в 07:20 UTC
Ветер 15 Узел от южный-юго-западный
Температура 7°C
Влажность 87%
Давление 1013 hPa
Видимость 10 км и более

METAR: ESMT 170720Z AUTO 20015KT 9999 OVC010/// 07/05 Q1013

Время: 08:55 (07:55 UTC)

Прогноз

Эта сводка был подготовлена 20 часа и 43 минут назад, в 11:12 UTC
Прогноз действительный с 16-го 12 UTC до 16-го 16 UTC
Ветер 10 Узел от восточный
Видимость 10 км и более
небольшая облачность на высоте 800 фута
временами
С 16-го 12 UTC до 16-го 16 UTC
Видимость: 3000 м
Рассеянная облачность на высоте 800 фута
дождь, Морось, дымка

TAF: ESMT 161112Z 1612/1616 08010KT 9999 FEW008 TEMPO 1612/1616 3000 RADZ BR BKN008

Метеонаблюдения и прогнозы для более 4000 аэропортов (сводки METAR и TAF).

Имеющиеся станции представлены на карте желтыми и красными точками.

Чтобы увидеть название станции, наведите на нее мышь.

Затем щелкните, чтобы увидеть метеонаблюдения и метеопрогнозы.

Управление картой: чтобы увеличить масштаб, щелкните зеленые кнопки с черным крестиком; чтобы уменьшить масштаб, щелкните зеленую кнопку с тире; для просмотра соседних карт щелкайте зеленые стрелки.


METAR-TAF: